Time;durP1;ratioP1;P1;durP2;ratioP2;P2;SDS_P1;SDS_P2;PMS_P1;PMS_P2;Temp;Humidity;BMP_temperature;BMP_pressure;BME280_temperature;BME280_humidity;BME280_pressure;Samples;Min_cycle;Max_cycle;Signal;HPM_P1;HPM_P2
2021/10/27 00:01:11;;;;;;;6.53;2.92;;;;;;;;;;5075694;28;20024;-72
2021/10/27 00:03:39;;;;;;;5.97;3.30;;;25.20;99.90;;;;;;5075500;28;20021;-72
2021/10/27 00:06:06;;;;;;;4.38;3.08;;;25.20;99.90;;;;;;5075306;28;20036;-72
2021/10/27 00:08:34;;;;;;;5.80;3.33;;;25.30;99.90;;;;;;5074302;28;20112;-74
2021/10/27 00:11:01;;;;;;;8.20;3.17;;;25.10;99.90;;;;;;5074127;28;20142;-74
2021/10/27 00:13:29;;;;;;;7.80;2.80;;;25.10;99.90;;;;;;5075332;28;20366;-73
2021/10/27 00:15:56;;;;;;;7.07;2.88;;;25.30;99.90;;;;;;5074018;28;20031;-74
2021/10/27 00:18:24;;;;;;;7.28;2.90;;;25.30;99.90;;;;;;5075394;28;20048;-70
2021/10/27 00:20:52;;;;;;;5.85;3.10;;;25.60;99.90;;;;;;5075401;28;20024;-72
2021/10/27 00:23:19;;;;;;;7.03;3.40;;;25.30;99.90;;;;;;5075364;28;20017;-73
2021/10/27 00:25:46;;;;;;;5.50;3.05;;;25.10;99.90;;;;;;5073886;28;20020;-73
2021/10/27 00:28:14;;;;;;;6.32;3.45;;;25.20;99.90;;;;;;5074014;28;20032;-72
2021/10/27 00:30:41;;;;;;;5.80;3.50;;;25.40;99.90;;;;;;5075169;28;20473;-72
2021/10/27 00:33:11;;;;;;;7.22;3.55;;;25.00;99.90;;;;;;5075079;28;20580;-72
2021/10/27 00:35:39;;;;;;;8.07;3.70;;;24.90;99.90;;;;;;5073705;28;20035;-73
2021/10/27 00:38:07;;;;;;;6.03;3.13;;;24.80;99.90;;;;;;5075193;28;20366;-73
2021/10/27 00:40:34;;;;;;;6.30;3.33;;;25.00;99.90;;;;;;5073711;28;20032;-73
2021/10/27 00:43:02;;;;;;;8.55;3.65;;;25.00;99.90;;;;;;5074943;28;20025;-73
2021/10/27 00:45:29;;;;;;;6.43;3.22;;;;;;;;;;5073392;28;20033;-73
2021/10/27 00:47:56;;;;;;;7.43;3.42;;;;;;;;;;5074737;28;20025;-74
2021/10/27 00:50:23;;;;;;;6.40;3.10;;;;;;;;;;5074774;28;20024;-72
2021/10/27 00:52:50;;;;;;;5.05;3.03;;;;;;;;;;5073579;28;20079;-73
2021/10/27 00:55:17;;;;;;;6.65;3.10;;;;;;;;;;5074681;28;20020;-73
2021/10/27 00:57:45;;;;;;;5.20;3.17;;;;;;;;;;5073366;28;20081;-73
2021/10/27 01:00:12;;;;;;;6.05;3.20;;;;;;;;;;5073666;28;20375;-72
2021/10/27 01:02:40;;;;;;;5.60;3.03;;;;;;;;;;5074840;28;20059;-72
2021/10/27 01:05:08;;;;;;;6.03;3.20;;;;;;;;;;5074408;28;20031;-73
2021/10/27 01:07:36;;;;;;;4.05;2.80;;;25.00;99.90;;;;;;5074610;28;20021;-72
2021/10/27 01:10:06;;;;;;;4.60;3.05;;;24.70;99.90;;;;;;5074514;28;20028;-73
2021/10/27 01:12:34;;;;;;;4.63;3.05;;;;;;;;;;5073197;28;20067;-72
2021/10/27 01:15:01;;;;;;;6.03;3.22;;;;;;;;;;5074577;28;20017;-72
2021/10/27 01:17:28;;;;;;;4.18;3.40;;;;;;;;;;5074092;28;20123;-72
2021/10/27 01:19:59;;;;;;;4.47;3.17;;;;;;;;;;5074337;28;20040;-72
2021/10/27 01:22:28;;;;;;;4.40;3.17;;;;;;;;;;5074152;28;20535;-73
2021/10/27 01:24:55;;;;;;;5.45;3.15;;;;;;;;;;5074002;28;20448;-73
2021/10/27 01:27:23;;;;;;;4.25;3.17;;;;;;;;;;5074150;28;20024;-73
2021/10/27 01:29:53;;;;;;;4.90;2.90;;;;;;;;;;5074075;28;20052;-72
2021/10/27 01:32:30;;;;;;;5.93;3.05;;;;;;;;;;5074095;28;20020;-73
2021/10/27 01:34:59;;;;;;;8.40;3.38;;;24.90;99.90;;;;;;5074149;28;20020;-73
2021/10/27 01:37:27;;;;;;;4.90;2.65;;;25.20;99.90;;;;;;5072592;28;20025;-73
2021/10/27 01:39:57;;;;;;;7.18;3.05;;;25.60;99.90;;;;;;5073664;28;20109;-73
2021/10/27 01:42:24;;;;;;;6.20;2.92;;;25.60;99.90;;;;;;5072498;28;20027;-72
2021/10/27 01:44:52;;;;;;;6.07;3.22;;;25.50;99.90;;;;;;5073592;28;20489;-72
2021/10/27 01:47:19;;;;;;;5.55;3.00;;;25.80;99.90;;;;;;5072415;28;20024;-74
2021/10/27 01:49:47;;;;;;;7.03;3.08;;;25.90;99.90;;;;;;5073676;28;20034;-73
2021/10/27 01:52:15;;;;;;;6.13;3.17;;;25.50;99.90;;;;;;5073783;28;20059;-73
2021/10/27 01:54:42;;;;;;;5.05;3.20;;;25.60;99.90;;;;;;5073556;28;20061;-74
2021/10/27 01:57:11;;;;;;;3.75;2.97;;;25.50;99.90;;;;;;5073672;28;20564;-74
2021/10/27 01:59:38;;;;;;;4.40;3.17;;;25.80;99.90;;;;;;5073513;28;20451;-74
2021/10/27 02:02:06;;;;;;;6.20;3.28;;;25.90;99.90;;;;;;5072088;28;20492;-74
2021/10/27 02:04:33;;;;;;;5.88;3.58;;;26.00;99.90;;;;;;5072052;28;20085;-75
2021/10/27 02:07:01;;;;;;;7.05;3.47;;;26.00;99.90;;;;;;5073421;28;20082;-75
2021/10/27 02:09:29;;;;;;;5.65;2.90;;;26.30;99.90;;;;;;5072458;28;20067;-75
2021/10/27 02:11:58;;;;;;;7.13;3.25;;;26.50;99.90;;;;;;5073240;28;20382;-74
2021/10/27 02:14:25;;;;;;;6.15;3.28;;;26.50;99.90;;;;;;5071862;28;20397;-75
2021/10/27 02:16:52;;;;;;;4.22;3.10;;;26.50;99.90;;;;;;5073034;28;20489;-75
2021/10/27 02:19:20;;;;;;;6.38;3.30;;;26.60;99.90;;;;;;5073233;28;20017;-75
2021/10/27 02:21:47;;;;;;;5.10;3.05;;;26.40;99.90;;;;;;5072099;28;20020;-75
2021/10/27 02:24:15;;;;;;;7.35;3.30;;;26.50;99.90;;;;;;5073055;28;20031;-73
2021/10/27 02:26:42;;;;;;;4.43;3.03;;;26.20;99.90;;;;;;5073132;28;20016;-76
2021/10/27 02:29:10;;;;;;;6.13;3.38;;;26.30;99.90;;;;;;5073042;28;20021;-75
2021/10/27 02:31:37;;;;;;;4.18;2.97;;;26.50;99.90;;;;;;5071801;28;20358;-75
2021/10/27 02:34:05;;;;;;;5.38;2.90;;;26.90;99.90;;;;;;5071931;28;20501;-75
2021/10/27 02:36:32;;;;;;;4.22;3.10;;;27.10;99.90;;;;;;5072936;28;20028;-75
2021/10/27 02:39:00;;;;;;;5.00;2.83;;;27.20;99.90;;;;;;5073089;28;20367;-74
2021/10/27 02:41:27;;;;;;;6.65;3.00;;;27.00;99.90;;;;;;5071759;28;20052;-74
2021/10/27 02:43:54;;;;;;;6.93;3.10;;;26.30;99.90;;;;;;5072819;28;20482;-74
2021/10/27 02:46:22;;;;;;;4.15;2.83;;;26.20;99.90;;;;;;5072802;28;20025;-75
2021/10/27 02:48:49;;;;;;;9.82;3.30;;;26.60;99.90;;;;;;5072778;28;20074;-75
2021/10/27 02:51:17;;;;;;;8.52;3.47;;;26.60;99.90;;;;;;5070679;28;20486;-75
2021/10/27 02:53:44;;;;;;;7.00;3.38;;;26.90;99.90;;;;;;5071396;28;20021;-74
2021/10/27 02:56:11;;;;;;;7.65;2.90;;;26.30;99.90;;;;;;5073001;28;20020;-75
2021/10/27 02:58:39;;;;;;;6.28;3.20;;;26.60;99.90;;;;;;5071632;28;20028;-75
2021/10/27 03:01:07;;;;;;;8.50;3.25;;;26.60;99.90;;;;;;5072690;28;20149;-75
2021/10/27 03:03:34;;;;;;;8.30;3.40;;;26.70;99.90;;;;;;5071531;28;20047;-75
2021/10/27 03:06:02;;;;;;;8.50;3.28;;;26.50;99.90;;;;;;5072445;28;20036;-75
2021/10/27 03:08:30;;;;;;;7.28;3.25;;;26.10;99.90;;;;;;5072580;28;20469;-74
2021/10/27 03:10:57;;;;;;;6.75;3.00;;;26.20;99.90;;;;;;5071163;28;20024;-74
2021/10/27 03:13:24;;;;;;;6.22;3.33;;;25.90;99.90;;;;;;5071179;28;20028;-74
2021/10/27 03:15:52;;;;;;;10.27;3.47;;;26.00;99.90;;;;;;5071257;28;20028;-75
2021/10/27 03:18:19;;;;;;;7.05;3.13;;;26.30;99.90;;;;;;5072616;28;20066;-74
2021/10/27 03:20:47;;;;;;;5.07;3.20;;;26.40;99.90;;;;;;5072701;28;20020;-75
2021/10/27 03:23:14;;;;;;;8.93;3.28;;;26.10;99.90;;;;;;5072468;28;20020;-74
2021/10/27 03:25:41;;;;;;;8.70;3.40;;;26.10;99.90;;;;;;5071149;28;20079;-73
2021/10/27 03:28:09;;;;;;;7.78;3.42;;;26.10;99.90;;;;;;5072456;28;20027;-75
2021/10/27 03:30:36;;;;;;;7.65;3.10;;;26.40;99.90;;;;;;5072380;28;20021;-74
2021/10/27 03:33:03;;;;;;;8.98;3.20;;;26.90;99.90;;;;;;5071372;28;20023;-73
2021/10/27 03:35:31;;;;;;;5.85;3.30;;;26.80;99.90;;;;;;5072376;28;20428;-75
2021/10/27 03:37:58;;;;;;;5.93;3.50;;;26.80;99.90;;;;;;5072396;28;20477;-75
2021/10/27 03:40:26;;;;;;;5.60;2.85;;;27.10;99.90;;;;;;5071018;28;20020;-75
2021/10/27 03:42:53;;;;;;;7.88;3.30;;;26.90;99.90;;;;;;5072191;28;20063;-75
2021/10/27 03:45:21;;;;;;;7.22;3.38;;;26.60;99.90;;;;;;5071772;28;20016;-75
2021/10/27 03:47:48;;;;;;;5.32;3.30;;;26.60;99.90;;;;;;5071423;28;20493;-75
2021/10/27 03:50:16;;;;;;;6.05;3.05;;;26.40;99.90;;;;;;5070348;28;20481;-74
2021/10/27 03:52:44;;;;;;;6.03;2.90;;;26.40;99.90;;;;;;5071001;28;20386;-75
2021/10/27 03:55:13;;;;;;;6.97;3.25;;;26.30;99.90;;;;;;5072165;28;20021;-75
2021/10/27 03:57:40;;;;;;;4.90;3.20;;;26.10;99.90;;;;;;5072245;28;20056;-74
2021/10/27 04:00:11;;;;;;;5.22;3.40;;;25.90;99.90;;;;;;5072037;28;20046;-74
2021/10/27 04:02:42;;;;;;;5.75;3.20;;;26.00;99.90;;;;;;5073973;28;20109;-74
2021/10/27 04:05:10;;;;;;;6.00;3.20;;;26.40;99.90;;;;;;5075778;28;20032;-73
2021/10/27 04:07:37;;;;;;;6.13;3.22;;;26.20;99.90;;;;;;5074385;28;20111;-74
2021/10/27 04:10:08;;;;;;;9.55;3.35;;;26.40;99.90;;;;;;5075531;28;20046;-76
2021/10/27 04:12:36;;;;;;;6.55;3.30;;;26.50;99.90;;;;;;5074203;28;20039;-75
2021/10/27 04:15:05;;;;;;;9.38;3.30;;;26.60;99.90;;;;;;5074417;28;20401;-74
2021/10/27 04:17:34;;;;;;;7.53;3.13;;;26.60;99.90;;;;;;5075182;28;20406;-74
2021/10/27 04:20:04;;;;;;;6.47;3.15;;;26.60;99.90;;;;;;5075497;28;20466;-74
2021/10/27 04:22:33;;;;;;;5.53;3.30;;;26.30;99.90;;;;;;5075389;28;20524;-74
2021/10/27 04:25:00;;;;;;;4.05;3.05;;;26.60;99.90;;;;;;5075205;28;20025;-74
2021/10/27 04:27:28;;;;;;;6.95;3.20;;;26.30;99.90;;;;;;5075424;28;20477;-74
2021/10/27 04:29:56;;;;;;;6.43;3.65;;;26.10;99.90;;;;;;5075339;28;20367;-74
2021/10/27 04:32:23;;;;;;;5.72;3.25;;;26.40;99.90;;;;;;5075371;28;20057;-74
2021/10/27 04:34:51;;;;;;;6.47;3.20;;;26.40;99.90;;;;;;5073665;28;20028;-75
2021/10/27 04:37:19;;;;;;;6.80;3.10;;;26.50;99.90;;;;;;5073726;28;20020;-74
2021/10/27 04:39:46;;;;;;;7.82;3.35;;;26.50;99.90;;;;;;5073745;28;20025;-74
2021/10/27 04:42:14;;;;;;;7.88;3.15;;;26.30;99.90;;;;;;5074974;28;20028;-74
2021/10/27 04:44:41;;;;;;;6.90;3.20;;;26.10;99.90;;;;;;5073602;28;20029;-75
2021/10/27 04:47:09;;;;;;;6.00;2.83;;;26.20;99.90;;;;;;5073947;28;20398;-76
2021/10/27 04:49:36;;;;;;;7.03;3.08;;;26.70;99.90;;;;;;5074836;28;20481;-76
2021/10/27 04:52:04;;;;;;;5.80;3.08;;;26.60;99.90;;;;;;5074843;28;20017;-75
2021/10/27 04:54:31;;;;;;;8.55;3.55;;;26.50;99.90;;;;;;5073588;28;20090;-75
2021/10/27 04:56:59;;;;;;;4.60;3.15;;;26.10;99.90;;;;;;5074640;28;20016;-75
2021/10/27 04:59:35;;;;;;;7.65;3.60;;;26.30;99.90;;;;;;5074599;28;20020;-75
2021/10/27 05:02:03;;;;;;;6.47;3.10;;;26.10;99.90;;;;;;5074726;28;20031;-75
2021/10/27 05:04:31;;;;;;;7.50;3.10;;;25.60;99.90;;;;;;5072963;28;20016;-75
2021/10/27 05:06:58;;;;;;;6.28;3.53;;;25.60;99.90;;;;;;5074410;28;20031;-75
2021/10/27 05:09:25;;;;;;;7.40;3.63;;;25.10;99.90;;;;;;5073137;28;20036;-75
2021/10/27 05:11:53;;;;;;;6.90;3.03;;;25.60;99.90;;;;;;5072991;28;20017;-75
2021/10/27 05:14:20;;;;;;;7.07;2.95;;;25.70;99.90;;;;;;5072391;28;20020;-75
2021/10/27 05:16:49;;;;;;;7.25;3.17;;;25.90;99.90;;;;;;5072721;28;20057;-76
2021/10/27 05:19:16;;;;;;;7.70;3.35;;;26.00;99.90;;;;;;5073009;28;20492;-74
2021/10/27 05:21:44;;;;;;;6.75;3.05;;;26.00;99.90;;;;;;5074202;28;20382;-74
2021/10/27 05:24:11;;;;;;;6.90;2.88;;;26.20;99.90;;;;;;5074144;28;20021;-74
2021/10/27 05:26:38;;;;;;;6.32;2.80;;;26.30;99.90;;;;;;5074025;28;20029;-75
2021/10/27 05:29:06;;;;;;;7.60;2.80;;;26.40;99.90;;;;;;5072694;28;20389;-75
2021/10/27 05:31:36;;;;;;;6.18;3.30;;;26.20;99.90;;;;;;5072629;28;20066;-76
2021/10/27 05:34:03;;;;;;;10.55;3.28;;;26.20;99.90;;;;;;5072548;28;20026;-75
2021/10/27 05:36:31;;;;;;;5.80;3.00;;;26.20;99.90;;;;;;5074101;28;20124;-75
2021/10/27 05:38:59;;;;;;;4.95;3.08;;;26.00;99.90;;;;;;5073861;28;20079;-75
2021/10/27 05:41:26;;;;;;;7.50;3.60;;;25.80;99.90;;;;;;5072531;28;20029;-75
2021/10/27 05:43:54;;;;;;;11.18;4.28;;;26.10;99.90;;;;;;5073710;28;20020;-75
2021/10/27 05:46:22;;;;;;;5.93;3.58;;;26.20;99.90;;;;;;5072160;28;20029;-75
2021/10/27 05:48:59;;;;;;;5.63;3.47;;;26.30;99.90;;;;;;5073677;28;20133;-74
2021/10/27 05:51:45;;;;;;;6.97;4.28;;;26.00;99.90;;;;;;5071946;28;20027;-75
2021/10/27 05:56:57;;;;;;;7.35;3.90;;;25.70;99.90;;;;;;5073680;28;20112;-76
2021/10/27 05:59:25;;;;;;;7.57;3.30;;;25.60;99.90;;;;;;5073439;28;20024;-76
2021/10/27 06:01:52;;;;;;;8.15;3.60;;;25.60;99.90;;;;;;5072106;28;20027;-76
2021/10/27 06:04:20;;;;;;;6.22;3.75;;;25.40;99.90;;;;;;5073319;28;20486;-76
2021/10/27 06:06:48;;;;;;;5.82;3.53;;;25.30;99.90;;;;;;5072128;28;20020;-76
2021/10/27 06:09:16;;;;;;;9.75;4.03;;;25.40;99.90;;;;;;5072143;28;20027;-76
2021/10/27 06:11:44;;;;;;;5.95;3.28;;;25.50;99.90;;;;;;5073059;28;20163;-75
2021/10/27 06:14:12;;;;;;;5.55;3.53;;;25.40;99.90;;;;;;5071774;28;20028;-74
2021/10/27 06:16:40;;;;;;;6.22;3.13;;;25.20;99.90;;;;;;5071642;28;20033;-75
2021/10/27 06:19:07;;;;;;;4.05;3.60;;;25.50;99.90;;;;;;5073244;28;20546;-75
2021/10/27 06:21:35;;;;;;;5.38;3.65;;;25.50;99.90;;;;;;5073224;28;20032;-75
2021/10/27 06:24:02;;;;;;;7.93;3.00;;;25.50;99.90;;;;;;5072727;28;20375;-75
2021/10/27 06:26:30;;;;;;;7.50;2.90;;;25.50;99.90;;;;;;5071104;28;20481;-75
2021/10/27 06:29:05;;;;;;;5.57;3.22;;;25.60;99.90;;;;;;5071899;28;20506;-75
2021/10/27 06:34:15;;;;;;;5.95;3.50;;;25.80;99.90;;;;;;5073206;28;20096;-75
2021/10/27 06:47:34;;;;;;;5.50;3.25;;;25.90;99.90;;;;;;5073127;28;20104;-73
2021/10/27 06:50:02;;;;;;;6.95;2.90;;;25.80;99.90;;;;;;5072824;28;20025;-72
2021/10/27 06:52:30;;;;;;;6.65;3.55;;;26.00;99.90;;;;;;5072752;28;20024;-73
2021/10/27 06:54:57;;;;;;;10.30;3.92;;;25.40;99.90;;;;;;5072690;28;20469;-73
2021/10/27 06:57:27;;;;;;;7.25;3.40;;;25.50;99.90;;;;;;5071246;28;20078;-74
2021/10/27 07:00:12;;;;;;;6.40;3.72;;;25.00;99.90;;;;;;5071435;28;20043;-74
2021/10/27 07:16:16;;;;;;;8.05;4.28;;;22.90;99.90;;;;;;5072848;28;20074;-71
2021/10/27 07:18:44;;;;;;;6.45;4.18;;;22.70;99.90;;;;;;5072601;28;20053;-71
2021/10/27 07:21:11;;;;;;;9.35;4.30;;;22.80;99.90;;;;;;5072755;28;20095;-71
2021/10/27 07:23:40;;;;;;;8.32;4.25;;;22.60;99.90;;;;;;5071315;28;20028;-71
2021/10/27 07:26:08;;;;;;;6.93;4.68;;;22.40;99.90;;;;;;5072254;28;20090;-71
2021/10/27 07:28:36;;;;;;;11.02;4.85;;;22.30;99.90;;;;;;5072582;28;20017;-73
2021/10/27 07:31:05;;;;;;;8.80;4.10;;;22.20;99.90;;;;;;5072525;28;20017;-72
2021/10/27 07:33:33;;;;;;;7.55;4.18;;;22.10;99.90;;;;;;5054591;28;20025;-72
2021/10/27 07:36:08;;;;;;;23.40;5.90;;;22.00;99.90;;;;;;5072728;28;20021;-71
2021/10/27 07:41:21;;;;;;;6.70;4.80;;;21.90;99.90;;;;;;5076329;28;20457;-71
2021/10/27 07:43:49;;;;;;;8.23;4.45;;;21.80;99.90;;;;;;5076591;28;20173;-71
2021/10/27 07:46:16;;;;;;;6.13;4.85;;;21.50;99.90;;;;;;5074917;28;20417;-70
2021/10/27 07:48:44;;;;;;;8.02;6.03;;;21.50;99.90;;;;;;5076445;28;20020;-69
2021/10/27 07:51:12;;;;;;;7.90;6.32;;;21.30;99.90;;;;;;5076385;28;20017;-69
2021/10/27 07:53:40;;;;;;;10.55;6.30;;;21.10;99.90;;;;;;5076050;28;20466;-70
2021/10/27 07:56:08;;;;;;;9.05;6.15;;;21.10;99.90;;;;;;5076047;28;20021;-69
2021/10/27 07:58:35;;;;;;;8.20;7.45;;;21.00;99.90;;;;;;5074640;28;20496;-70
2021/10/27 08:01:03;;;;;;;8.20;7.40;;;21.00;99.90;;;;;;5075840;28;20016;-71
2021/10/27 08:03:33;;;;;;;8.45;7.40;;;20.90;99.90;;;;;;5075766;28;20481;-71
2021/10/27 08:06:05;;;;;;;9.98;7.55;;;20.90;99.90;;;;;;5076192;28;20017;-71
2021/10/27 08:08:32;;;;;;;9.25;7.93;;;20.80;99.90;;;;;;5075675;28;20456;-70
2021/10/27 08:11:00;;;;;;;9.45;8.57;;;20.80;99.90;;;;;;5075995;28;20021;-71
2021/10/27 08:13:29;;;;;;;11.38;9.07;;;20.70;99.90;;;;;;5075944;28;20108;-72
2021/10/27 08:15:57;;;;;;;13.38;9.18;;;20.60;99.90;;;;;;5074103;28;20025;-70
2021/10/27 08:18:24;;;;;;;9.52;8.70;;;20.60;99.90;;;;;;5074056;28;20139;-71
2021/10/27 08:20:51;;;;;;;10.98;9.38;;;20.60;99.90;;;;;;5075389;28;20548;-72
2021/10/27 08:23:21;;;;;;;10.23;9.32;;;20.50;99.90;;;;;;5075287;28;20025;-71
2021/10/27 08:25:54;;;;;;;10.57;9.48;;;20.50;99.90;;;;;;5075212;28;20024;-73
2021/10/27 08:28:33;;;;;;;11.02;10.13;;;20.50;99.90;;;;;;5073972;28;20024;-70
2021/10/27 08:36:02;;;;;;;13.05;11.55;;;20.30;99.90;;;;;;5075193;28;20028;-71
2021/10/27 08:38:30;;;;;;;12.68;11.50;;;20.30;99.90;;;;;;5075180;28;20029;-71
2021/10/27 08:40:59;;;;;;;12.35;11.32;;;20.30;99.90;;;;;;5075008;28;20049;-71
2021/10/27 08:43:26;;;;;;;13.07;11.88;;;20.30;99.90;;;;;;5073642;28;20025;-71
2021/10/27 08:45:55;;;;;;;13.73;12.35;;;20.20;99.90;;;;;;5074852;28;20483;-71
2021/10/27 08:48:22;;;;;;;13.30;12.10;;;20.20;99.90;;;;;;5072610;28;20157;-71
2021/10/27 08:50:50;;;;;;;12.95;11.65;;;20.10;99.90;;;;;;5073570;28;20028;-71
2021/10/27 08:53:21;;;;;;;13.82;12.27;;;20.10;99.90;;;;;;5073830;28;20032;-72
2021/10/27 08:55:50;;;;;;;12.77;11.40;;;20.10;99.90;;;;;;5074792;28;20025;-73
2021/10/27 08:58:32;;;;;;;13.02;11.05;;;20.10;99.90;;;;;;5074884;28;20035;-74
2021/10/27 09:03:51;;;;;;;13.00;11.63;;;20.00;99.90;;;;;;5074722;28;20025;-72
2021/10/27 09:06:27;;;;;;;12.90;11.20;;;20.00;99.90;;;;;;5073228;28;20070;-72
2021/10/27 09:34:38;;;;;;;13.63;12.32;;;19.80;99.90;;;;;;5081050;28;20027;-74
2021/10/27 09:37:31;;;;;;;13.68;12.23;;;19.80;99.90;;;;;;5080244;28;20021;-73
2021/10/27 10:05:20;;;;;;;18.20;12.30;;;19.40;99.90;;;;;;5073574;28;20413;-73
2021/10/27 10:07:49;;;;;;;17.02;12.75;;;19.40;99.90;;;;;;5072180;28;20445;-73
2021/10/27 10:10:17;;;;;;;16.90;13.40;;;19.40;99.90;;;;;;5072051;28;20417;-73
2021/10/27 10:12:50;;;;;;;17.17;12.65;;;19.40;99.90;;;;;;5073143;28;20100;-73
2021/10/27 10:15:27;;;;;;;15.25;12.60;;;19.40;99.90;;;;;;5071981;28;20473;-73
2021/10/27 10:17:56;;;;;;;13.10;11.90;;;19.40;99.90;;;;;;5073048;28;20452;-73
2021/10/27 10:20:24;;;;;;;14.82;12.18;;;19.40;99.90;;;;;;5071884;28;20059;-74
2021/10/27 10:22:52;;;;;;;13.60;12.20;;;19.30;99.90;;;;;;5073115;28;20024;-74
2021/10/27 10:25:24;;;;;;;14.00;12.55;;;19.30;99.90;;;;;;5073211;28;20167;-73
2021/10/27 10:27:56;;;;;;;14.63;11.75;;;19.40;99.90;;;;;;5073242;28;20012;-73
2021/10/27 10:30:51;;;;;;;16.38;12.27;;;19.30;99.90;;;;;;5073176;28;20111;-73
2021/10/27 10:33:19;;;;;;;14.02;12.48;;;19.30;99.90;;;;;;5071794;28;20500;-72
2021/10/27 10:41:36;;;;;;;18.25;12.52;;;19.40;99.90;;;;;;5073010;28;20086;-73
2021/10/27 10:58:58;;;;;;;15.65;13.65;;;19.30;99.90;;;;;;5072804;28;20451;-72
2021/10/27 11:42:14;;;;;;;15.77;13.00;;;18.90;99.90;;;;;;5076352;28;20035;-74
2021/10/27 11:44:51;;;;;;;15.60;13.57;;;18.90;99.90;;;;;;5074931;28;20435;-74
2021/10/27 11:47:38;;;;;;;20.42;14.20;;;18.90;99.90;;;;;;5076294;28;20550;-74
2021/10/27 11:50:10;;;;;;;16.88;14.07;;;19.00;99.90;;;;;;5076092;28;20013;-73
2021/10/27 11:52:42;;;;;;;17.52;13.63;;;18.90;99.90;;;;;;5076681;28;20028;-74
2021/10/27 11:55:13;;;;;;;18.33;13.85;;;18.90;99.90;;;;;;5076104;28;20016;-74
2021/10/27 11:57:42;;;;;;;20.55;14.55;;;18.90;99.90;;;;;;5075992;28;20138;-73
2021/10/27 12:00:35;;;;;;;15.32;13.80;;;18.90;99.90;;;;;;5075890;28;20035;-74
2021/10/27 12:03:13;;;;;;;15.50;13.23;;;18.90;99.90;;;;;;5075863;28;20029;-73
2021/10/27 12:05:53;;;;;;;14.85;13.38;;;18.90;99.90;;;;;;5075803;28;20036;-74
2021/10/27 12:08:48;;;;;;;14.23;12.95;;;18.80;99.90;;;;;;5074531;28;20041;-74
2021/10/27 12:14:39;;;;;;;16.42;13.95;;;18.80;99.90;;;;;;5074677;28;20021;-75
2021/10/27 12:19:32;;;;;;;17.33;13.70;;;18.70;99.90;;;;;;5075651;28;20020;-74
2021/10/27 12:22:09;;;;;;;18.73;14.07;;;18.70;99.90;;;;;;5074304;28;20477;-74
2021/10/27 12:24:39;;;;;;;17.33;13.50;;;18.70;99.90;;;;;;5075514;28;20474;-74
2021/10/27 12:27:34;;;;;;;14.80;13.50;;;18.70;99.90;;;;;;5075545;28;20023;-74
2021/10/27 12:30:08;;;;;;;16.02;14.52;;;18.60;99.90;;;;;;5075469;28;20393;-74
2021/10/27 12:32:49;;;;;;;15.48;13.30;;;18.60;99.90;;;;;;5075510;28;20028;-74
2021/10/27 12:35:17;;;;;;;15.38;13.82;;;18.50;99.90;;;;;;5074096;28;20489;-74
2021/10/27 12:37:48;;;;;;;18.10;13.40;;;18.50;99.90;;;;;;5075424;28;20025;-74
2021/10/27 12:40:24;;;;;;;15.30;13.25;;;18.40;99.90;;;;;;5075536;28;20025;-74
2021/10/27 12:43:06;;;;;;;14.85;13.23;;;18.50;99.90;;;;;;5075287;28;20104;-74
2021/10/27 12:45:43;;;;;;;14.57;13.15;;;18.40;99.90;;;;;;5074007;28;20480;-74
2021/10/27 12:48:21;;;;;;;17.88;13.90;;;18.40;99.90;;;;;;5075156;28;20474;-74
2021/10/27 12:51:09;;;;;;;14.90;13.43;;;18.40;99.90;;;;;;5073853;28;20111;-74
2021/10/27 12:53:50;;;;;;;14.20;13.00;;;18.40;99.90;;;;;;5073827;28;20052;-74
2021/10/27 12:56:29;;;;;;;15.93;12.98;;;18.30;99.90;;;;;;5073729;28;20028;-74
2021/10/27 12:59:05;;;;;;;14.48;13.13;;;18.30;99.90;;;;;;5074939;28;20020;-74
2021/10/27 13:04:40;;;;;;;14.93;13.40;;;18.40;99.90;;;;;;5069864;28;20047;-74
2021/10/27 13:07:14;;;;;;;15.10;13.60;;;18.40;99.90;;;;;;5074933;28;20546;-74
2021/10/27 13:15:10;;;;;;;14.75;13.23;;;18.30;99.90;;;;;;5074678;28;20017;-74
2021/10/27 13:20:22;;;;;;;15.00;13.65;;;18.30;99.90;;;;;;5074460;28;20020;-74
2021/10/27 13:31:14;;;;;;;15.00;13.70;;;18.20;99.90;;;;;;5071042;28;20119;-73
2021/10/27 13:33:42;;;;;;;16.17;13.68;;;18.20;99.90;;;;;;5072480;28;20025;-73
2021/10/27 13:36:11;;;;;;;15.10;13.80;;;18.10;99.90;;;;;;5072872;28;20052;-73
2021/10/27 13:38:38;;;;;;;14.30;12.82;;;18.10;99.90;;;;;;5073187;28;20024;-72
2021/10/27 13:41:08;;;;;;;14.75;13.15;;;18.10;99.90;;;;;;5072831;28;20444;-73
2021/10/27 13:46:26;;;;;;;14.57;13.13;;;18.00;99.90;;;;;;5074044;28;20037;-73
2021/10/27 14:10:45;;;;;;;15.15;13.55;;;17.90;99.90;;;;;;5057380;28;20028;-73
2021/10/27 14:13:25;;;;;;;15.65;14.07;;;17.90;99.90;;;;;;5073573;28;20017;-73
2021/10/27 14:16:16;;;;;;;14.98;13.52;;;17.80;99.90;;;;;;5072244;28;20025;-73
2021/10/27 14:50:32;;;;;;;15.20;13.73;;;17.50;99.90;;;;;;5073420;28;20098;-72
2021/10/27 14:51:25;;;;;;;18.10;14.68;;;17.50;99.90;;;;;;5073035;28;20021;-73
2021/10/27 15:34:45;;;;;;;17.52;15.20;;;17.40;99.90;;;;;;5072562;28;20029;-73
2021/10/27 15:43:05;;;;;;;18.27;14.32;;;17.60;99.90;;;;;;5072626;28;20032;-73
2021/10/27 15:50:32;;;;;;;20.77;16.33;;;17.70;99.90;;;;;;5072629;28;20020;-73
2021/10/27 15:51:15;;;;;;;18.42;15.50;;;17.90;99.90;;;;;;5072567;28;20078;-74
2021/10/27 15:53:42;;;;;;;19.05;15.50;;;18.00;99.90;;;;;;5072471;28;20024;-73
2021/10/27 15:56:10;;;;;;;17.05;14.40;;;18.00;99.90;;;;;;5072560;28;20466;-71
2021/10/27 15:58:37;;;;;;;17.30;15.32;;;18.10;99.90;;;;;;5075410;28;20025;-73
2021/10/27 16:01:05;;;;;;;18.05;15.45;;;18.10;99.90;;;;;;5074698;28;20032;-73
2021/10/27 16:03:32;;;;;;;16.70;14.93;;;18.10;99.90;;;;;;5076003;28;20070;-73
2021/10/27 16:06:01;;;;;;;17.27;15.48;;;18.20;99.90;;;;;;5074564;28;20024;-73
2021/10/27 16:08:29;;;;;;;17.02;15.25;;;18.20;99.90;;;;;;5075901;28;20027;-73
2021/10/27 16:10:57;;;;;;;17.33;15.52;;;18.10;99.90;;;;;;5074519;28;20024;-73
2021/10/27 16:13:25;;;;;;;18.35;15.02;;;18.20;99.90;;;;;;5075893;28;20031;-73
2021/10/27 16:15:57;;;;;;;17.33;15.43;;;18.30;99.90;;;;;;5074451;28;20492;-72
2021/10/27 16:18:27;;;;;;;19.60;15.77;;;18.20;99.90;;;;;;5074255;28;20057;-73
2021/10/27 16:20:56;;;;;;;33.78;17.63;;;18.20;99.90;;;;;;5075699;28;20396;-73
2021/10/27 16:23:24;;;;;;;30.75;17.17;;;18.30;99.90;;;;;;5074464;28;20029;-73
2021/10/27 16:25:53;;;;;;;31.33;18.58;;;18.30;99.90;;;;;;5074428;28;20042;-73
2021/10/27 16:28:21;;;;;;;28.63;18.98;;;18.40;99.90;;;;;;5074240;28;20056;-72
2021/10/27 16:30:48;;;;;;;29.95;18.70;;;18.30;99.90;;;;;;5075511;28;20040;-72
2021/10/27 16:33:18;;;;;;;31.45;17.60;;;18.30;99.90;;;;;;5075481;28;20013;-72
2021/10/27 16:35:46;;;;;;;24.55;16.70;;;18.30;99.90;;;;;;5075801;28;20025;-73
2021/10/27 16:38:13;;;;;;;24.73;15.73;;;18.30;99.90;;;;;;5075294;28;20081;-73
2021/10/27 16:40:41;;;;;;;19.58;16.95;;;18.30;99.90;;;;;;5074203;28;20079;-72
2021/10/27 16:43:08;;;;;;;17.95;16.05;;;18.20;99.90;;;;;;5073963;28;20021;-71
2021/10/27 16:45:36;;;;;;;17.33;15.80;;;18.20;99.90;;;;;;5075310;28;20081;-72
2021/10/27 16:48:05;;;;;;;18.55;16.75;;;18.20;99.90;;;;;;5073873;28;20025;-72
2021/10/27 16:50:32;;;;;;;17.55;15.88;;;18.10;99.90;;;;;;5073985;28;20021;-71
2021/10/27 16:53:00;;;;;;;18.63;16.65;;;18.10;99.90;;;;;;5075035;28;20492;-72
2021/10/27 16:55:29;;;;;;;18.63;16.75;;;18.10;99.90;;;;;;5073755;28;20516;-74
2021/10/27 16:57:58;;;;;;;18.67;16.02;;;18.00;99.90;;;;;;5073889;28;20042;-72
2021/10/27 17:00:28;;;;;;;20.98;16.45;;;18.00;99.90;;;;;;5074829;28;20059;-72
2021/10/27 17:02:56;;;;;;;21.60;18.10;;;18.00;99.90;;;;;;5073555;28;20435;-73
2021/10/27 17:05:23;;;;;;;26.40;19.02;;;18.00;99.90;;;;;;5074732;28;20025;-73
2021/10/27 17:07:51;;;;;;;25.60;19.20;;;18.20;99.90;;;;;;5074704;28;20044;-72
2021/10/27 17:10:19;;;;;;;29.48;19.42;;;18.00;99.90;;;;;;5073845;28;20024;-73
2021/10/27 17:12:46;;;;;;;23.42;18.13;;;17.90;99.90;;;;;;5073375;28;20393;-72
2021/10/27 17:15:14;;;;;;;22.75;17.52;;;17.90;99.90;;;;;;5073337;28;20020;-73
2021/10/27 17:17:43;;;;;;;24.35;18.08;;;17.80;99.90;;;;;;5074386;28;20517;-73
2021/10/27 17:20:14;;;;;;;23.85;18.27;;;17.80;99.90;;;;;;5073315;28;20056;-73
2021/10/27 17:22:45;;;;;;;30.45;19.55;;;17.70;99.90;;;;;;5073128;28;20078;-73
2021/10/27 17:25:21;;;;;;;19.67;17.65;;;17.70;99.90;;;;;;5074422;28;20032;-73
2021/10/27 17:27:48;;;;;;;19.42;17.52;;;17.60;99.90;;;;;;5073127;28;20449;-73
2021/10/27 17:30:17;;;;;;;17.75;16.00;;;17.60;99.90;;;;;;5073041;28;20447;-73
2021/10/27 17:32:46;;;;;;;18.30;16.40;;;17.50;99.90;;;;;;5073014;28;20077;-73
2021/10/27 17:35:17;;;;;;;20.35;16.27;;;17.50;99.90;;;;;;5072924;28;20111;-73
2021/10/27 17:37:50;;;;;;;17.52;15.93;;;17.50;99.90;;;;;;5072919;28;20092;-73
2021/10/27 17:42:54;;;;;;;17.63;16.15;;;17.50;99.90;;;;;;5074102;28;20107;-73